sensor_id;sensor_type;location;lat;lon;timestamp;pressure;altitude;pressure_sealevel;temperature
69420;BMP280;56612;52.030;113.524;2022-07-23T02:15:13;92199.50;;;22.42
69420;BMP280;56612;52.030;113.524;2022-07-23T02:18:17;92193.03;;;22.35
69420;BMP280;56612;52.030;113.524;2022-07-23T02:21:21;92218.31;;;22.19
69420;BMP280;56612;52.030;113.524;2022-07-23T02:24:24;92226.50;;;22.04
69420;BMP280;56612;52.030;113.524;2022-07-23T02:27:28;92213.00;;;21.87
69420;BMP280;56612;52.030;113.524;2022-07-23T02:30:31;92220.75;;;21.81
69420;BMP280;56612;52.030;113.524;2022-07-23T02:33:35;92224.63;;;21.71
69420;BMP280;56612;52.030;113.524;2022-07-23T02:36:39;92196.66;;;21.58
69420;BMP280;56612;52.030;113.524;2022-07-23T02:40:03;92195.63;;;21.51
69420;BMP280;56612;52.030;113.524;2022-07-23T02:43:09;92192.31;;;21.34
69420;BMP280;56612;52.030;113.524;2022-07-23T02:46:14;92164.34;;;21.06
69420;BMP280;56612;52.030;113.524;2022-07-23T02:49:18;92170.34;;;20.77
69420;BMP280;56612;52.030;113.524;2022-07-23T02:52:23;92150.72;;;20.60
69420;BMP280;56612;52.030;113.524;2022-07-23T02:55:27;92147.47;;;20.41
69420;BMP280;56612;52.030;113.524;2022-07-23T02:58:34;92166.97;;;20.28
69420;BMP280;56612;52.030;113.524;2022-07-23T03:01:38;92193.44;;;20.28
69420;BMP280;56612;52.030;113.524;2022-07-23T03:04:42;92195.22;;;20.33
69420;BMP280;56612;52.030;113.524;2022-07-23T03:07:46;92197.03;;;20.39
69420;BMP280;56612;52.030;113.524;2022-07-23T03:10:50;92199.00;;;20.57
69420;BMP280;56612;52.030;113.524;2022-07-23T03:13:54;92190.06;;;20.92
69420;BMP280;56612;52.030;113.524;2022-07-23T03:16:58;92195.69;;;21.34
69420;BMP280;56612;52.030;113.524;2022-07-23T03:20:02;92194.03;;;21.71
69420;BMP280;56612;52.030;113.524;2022-07-23T03:23:06;92195.00;;;21.94
69420;BMP280;56612;52.030;113.524;2022-07-23T03:26:09;92176.50;;;21.97
69420;BMP280;56612;52.030;113.524;2022-07-23T03:29:14;92182.97;;;22.04
69420;BMP280;56612;52.030;113.524;2022-07-23T03:32:19;92179.28;;;22.10
69420;BMP280;56612;52.030;113.524;2022-07-23T03:35:22;92192.34;;;22.07
69420;BMP280;56612;52.030;113.524;2022-07-23T03:38:41;92165.41;;;22.01
69420;BMP280;56612;52.030;113.524;2022-07-23T03:41:45;92158.03;;;21.85
69420;BMP280;56612;52.030;113.524;2022-07-23T03:44:48;92174.84;;;21.75
69420;BMP280;56612;52.030;113.524;2022-07-23T03:47:52;92158.88;;;21.67
69420;BMP280;56612;52.030;113.524;2022-07-23T03:50:55;92145.50;;;21.63
69420;BMP280;56612;52.030;113.524;2022-07-23T03:54:00;92139.19;;;21.66
69420;BMP280;56612;52.030;113.524;2022-07-23T03:57:04;92148.47;;;21.71
69420;BMP280;56612;52.030;113.524;2022-07-23T04:00:10;92149.13;;;21.72
69420;BMP280;56612;52.030;113.524;2022-07-23T04:03:14;92155.31;;;21.70
69420;BMP280;56612;52.030;113.524;2022-07-23T04:06:18;92172.47;;;21.67
69420;BMP280;56612;52.030;113.524;2022-07-23T04:09:24;92168.44;;;21.66
69420;BMP280;56612;52.030;113.524;2022-07-23T04:12:27;92169.09;;;21.66
69420;BMP280;56612;52.030;113.524;2022-07-23T04:15:31;92190.50;;;21.74
69420;BMP280;56612;52.030;113.524;2022-07-23T04:18:34;92187.94;;;21.85
69420;BMP280;56612;52.030;113.524;2022-07-23T04:21:48;92201.38;;;22.04
69420;BMP280;56612;52.030;113.524;2022-07-23T04:24:52;92197.63;;;22.24
69420;BMP280;56612;52.030;113.524;2022-07-23T04:27:55;92189.28;;;22.43
69420;BMP280;56612;52.030;113.524;2022-07-23T04:30:59;92181.50;;;22.62
69420;BMP280;56612;52.030;113.524;2022-07-23T04:34:04;92162.81;;;22.81
69420;BMP280;56612;52.030;113.524;2022-07-23T04:37:09;92147.97;;;23.43
69420;BMP280;56612;52.030;113.524;2022-07-23T04:40:13;92150.06;;;24.04
69420;BMP280;56612;52.030;113.524;2022-07-23T04:43:16;92137.84;;;24.62
69420;BMP280;56612;52.030;113.524;2022-07-23T04:46:22;92116.63;;;24.86
69420;BMP280;56612;52.030;113.524;2022-07-23T04:49:27;92101.91;;;24.58
69420;BMP280;56612;52.030;113.524;2022-07-23T04:52:30;92095.69;;;24.36
69420;BMP280;56612;52.030;113.524;2022-07-23T04:55:33;92101.28;;;24.34
69420;BMP280;56612;52.030;113.524;2022-07-23T04:58:37;92102.38;;;24.50
69420;BMP280;56612;52.030;113.524;2022-07-23T05:01:40;92113.31;;;24.50
69420;BMP280;56612;52.030;113.524;2022-07-23T05:04:45;92116.53;;;24.65
69420;BMP280;56612;52.030;113.524;2022-07-23T05:07:50;92115.41;;;24.83
69420;BMP280;56612;52.030;113.524;2022-07-23T05:10:54;92107.84;;;25.07
69420;BMP280;56612;52.030;113.524;2022-07-23T05:13:57;92112.22;;;25.57
69420;BMP280;56612;52.030;113.524;2022-07-23T05:17:01;92116.84;;;26.33
69420;BMP280;56612;52.030;113.524;2022-07-23T05:20:05;92109.16;;;26.76
69420;BMP280;56612;52.030;113.524;2022-07-23T05:23:08;92104.41;;;26.55
69420;BMP280;56612;52.030;113.524;2022-07-23T05:26:12;92104.94;;;26.47
69420;BMP280;56612;52.030;113.524;2022-07-23T05:29:16;92101.97;;;26.81
69420;BMP280;56612;52.030;113.524;2022-07-23T05:32:19;92104.72;;;27.49
69420;BMP280;56612;52.030;113.524;2022-07-23T05:35:52;92115.25;;;28.02
69420;BMP280;56612;52.030;113.524;2022-07-23T05:40:13;92126.50;;;27.51
69420;BMP280;56612;52.030;113.524;2022-07-23T05:44:35;92117.84;;;27.38
69420;BMP280;56612;52.030;113.524;2022-07-23T05:53:29;92110.75;;;28.35
69420;BMP280;56612;52.030;113.524;2022-07-23T05:57:51;92114.56;;;29.79
69420;BMP280;56612;52.030;113.524;2022-07-23T06:02:14;92103.03;;;31.32
69420;BMP280;56612;52.030;113.524;2022-07-23T06:06:59;92104.50;;;31.31
69420;BMP280;56612;52.030;113.524;2022-07-23T06:11:22;92095.88;;;31.35
69420;BMP280;56612;52.030;113.524;2022-07-23T06:15:49;92093.22;;;30.62
69420;BMP280;56612;52.030;113.524;2022-07-23T06:20:21;92113.88;;;29.96
69420;BMP280;56612;52.030;113.524;2022-07-23T06:24:43;92123.13;;;29.93
69420;BMP280;56612;52.030;113.524;2022-07-23T06:29:05;92126.41;;;29.44
69420;BMP280;56612;52.030;113.524;2022-07-23T06:33:26;92123.00;;;28.72
69420;BMP280;56612;52.030;113.524;2022-07-23T06:37:50;92133.81;;;28.57
69420;BMP280;56612;52.030;113.524;2022-07-23T06:42:12;92115.38;;;28.64
69420;BMP280;56612;52.030;113.524;2022-07-23T06:46:59;92116.56;;;28.67
69420;BMP280;56612;52.030;113.524;2022-07-23T06:51:20;92134.06;;;28.36
69420;BMP280;56612;52.030;113.524;2022-07-23T06:55:41;92134.06;;;27.89
69420;BMP280;56612;52.030;113.524;2022-07-23T07:00:27;92122.78;;;27.93
69420;BMP280;56612;52.030;113.524;2022-07-23T07:09:09;92128.44;;;28.19
69420;BMP280;56612;52.030;113.524;2022-07-23T07:13:31;92133.03;;;28.31
69420;BMP280;56612;52.030;113.524;2022-07-23T07:17:52;92125.81;;;28.44
69420;BMP280;56612;52.030;113.524;2022-07-23T07:26:33;92116.69;;;28.65
69420;BMP280;56612;52.030;113.524;2022-07-23T07:31:20;92106.69;;;28.34
69420;BMP280;56612;52.030;113.524;2022-07-23T07:35:42;92105.50;;;27.67
69420;BMP280;56612;52.030;113.524;2022-07-23T07:40:05;92098.97;;;27.04
69420;BMP280;56612;52.030;113.524;2022-07-23T07:44:26;92110.69;;;26.53
69420;BMP280;56612;52.030;113.524;2022-07-23T07:49:12;92120.78;;;26.25
69420;BMP280;56612;52.030;113.524;2022-07-23T07:53:59;92120.16;;;25.93
69420;BMP280;56612;52.030;113.524;2022-07-23T07:58:45;92129.16;;;25.59
69420;BMP280;56612;52.030;113.524;2022-07-23T08:03:17;92140.19;;;25.36
69420;BMP280;56612;52.030;113.524;2022-07-23T08:07:38;92121.44;;;25.41
69420;BMP280;56612;52.030;113.524;2022-07-23T08:15:43;92102.63;;;25.13
69420;BMP280;56612;52.030;113.524;2022-07-23T08:18:48;92103.03;;;25.07
69420;BMP280;56612;52.030;113.524;2022-07-23T08:21:51;92104.56;;;25.04
69420;BMP280;56612;52.030;113.524;2022-07-23T08:24:55;92113.78;;;24.99
69420;BMP280;56612;52.030;113.524;2022-07-23T08:28:00;92119.22;;;24.88
69420;BMP280;56612;52.030;113.524;2022-07-23T08:31:04;92128.94;;;24.51
69420;BMP280;56612;52.030;113.524;2022-07-23T08:34:10;92120.53;;;24.19
69420;BMP280;56612;52.030;113.524;2022-07-23T08:37:14;92120.88;;;24.13
69420;BMP280;56612;52.030;113.524;2022-07-23T08:40:17;92118.28;;;24.11
69420;BMP280;56612;52.030;113.524;2022-07-23T08:43:23;92111.63;;;24.31
69420;BMP280;56612;52.030;113.524;2022-07-23T08:46:27;92117.75;;;24.09
69420;BMP280;56612;52.030;113.524;2022-07-23T08:49:31;92117.53;;;24.13
69420;BMP280;56612;52.030;113.524;2022-07-23T08:52:37;92101.75;;;24.26
69420;BMP280;56612;52.030;113.524;2022-07-23T08:55:46;92099.03;;;24.60
69420;BMP280;56612;52.030;113.524;2022-07-23T08:58:50;92096.19;;;24.85
69420;BMP280;56612;52.030;113.524;2022-07-23T09:01:56;92125.38;;;24.99
69420;BMP280;56612;52.030;113.524;2022-07-23T09:04:59;92115.75;;;26.49
69420;BMP280;56612;52.030;113.524;2022-07-23T09:08:15;92113.13;;;27.17
69420;BMP280;56612;52.030;113.524;2022-07-23T09:11:19;92113.34;;;28.37
69420;BMP280;56612;52.030;113.524;2022-07-23T09:14:36;92099.56;;;28.73
69420;BMP280;56612;52.030;113.524;2022-07-23T09:17:43;92085.38;;;28.97
69420;BMP280;56612;52.030;113.524;2022-07-23T09:20:46;92086.72;;;29.15
69420;BMP280;56612;52.030;113.524;2022-07-23T09:23:58;92091.41;;;29.59
69420;BMP280;56612;52.030;113.524;2022-07-23T09:27:02;92075.91;;;29.30
69420;BMP280;56612;52.030;113.524;2022-07-23T09:30:06;92076.59;;;28.60
69420;BMP280;56612;52.030;113.524;2022-07-23T09:33:11;92084.75;;;28.06
69420;BMP280;56612;52.030;113.524;2022-07-23T09:36:15;92085.16;;;27.72
69420;BMP280;56612;52.030;113.524;2022-07-23T09:39:32;92080.66;;;27.96
69420;BMP280;56612;52.030;113.524;2022-07-23T09:42:37;92081.53;;;28.12
69420;BMP280;56612;52.030;113.524;2022-07-23T09:45:40;92075.94;;;28.59
69420;BMP280;56612;52.030;113.524;2022-07-23T09:48:44;92081.56;;;29.11
69420;BMP280;56612;52.030;113.524;2022-07-23T09:51:51;92074.91;;;29.59
69420;BMP280;56612;52.030;113.524;2022-07-23T09:55:02;92064.66;;;29.92
69420;BMP280;56612;52.030;113.524;2022-07-23T09:58:06;92070.78;;;30.01
69420;BMP280;56612;52.030;113.524;2022-07-23T10:01:19;92073.63;;;30.90
69420;BMP280;56612;52.030;113.524;2022-07-23T10:04:25;92071.91;;;31.01
69420;BMP280;56612;52.030;113.524;2022-07-23T10:07:48;92068.63;;;31.07
69420;BMP280;56612;52.030;113.524;2022-07-23T10:11:30;92067.38;;;31.60
69420;BMP280;56612;52.030;113.524;2022-07-23T10:14:42;92087.28;;;31.69
69420;BMP280;56612;52.030;113.524;2022-07-23T10:17:47;92090.59;;;31.01
69420;BMP280;56612;52.030;113.524;2022-07-23T10:20:51;92083.38;;;30.24
69420;BMP280;56612;52.030;113.524;2022-07-23T10:24:21;92088.97;;;29.72
69420;BMP280;56612;52.030;113.524;2022-07-23T10:30:45;92079.44;;;29.20
69420;BMP280;56612;52.030;113.524;2022-07-23T10:34:19;92092.53;;;29.02
69420;BMP280;56612;52.030;113.524;2022-07-23T10:37:42;92092.47;;;28.85
69420;BMP280;56612;52.030;113.524;2022-07-23T10:41:01;92097.94;;;28.68
69420;BMP280;56612;52.030;113.524;2022-07-23T10:44:12;92101.63;;;28.56
69420;BMP280;56612;52.030;113.524;2022-07-23T10:47:30;92106.56;;;28.36
69420;BMP280;56612;52.030;113.524;2022-07-23T10:51:12;92115.06;;;28.23
69420;BMP280;56612;52.030;113.524;2022-07-23T10:54:22;92125.50;;;28.12
69420;BMP280;56612;52.030;113.524;2022-07-23T10:57:27;92124.50;;;28.07
69420;BMP280;56612;52.030;113.524;2022-07-23T11:00:32;92125.66;;;28.38
69420;BMP280;56612;52.030;113.524;2022-07-23T11:03:36;92131.31;;;28.08
69420;BMP280;56612;52.030;113.524;2022-07-23T11:09:52;92133.94;;;26.84
69420;BMP280;56612;52.030;113.524;2022-07-23T11:16:25;92125.25;;;26.20
69420;BMP280;56612;52.030;113.524;2022-07-23T11:19:30;92137.25;;;25.93
69420;BMP280;56612;52.030;113.524;2022-07-23T11:22:37;92139.47;;;25.80
69420;BMP280;56612;52.030;113.524;2022-07-23T11:25:40;92150.66;;;25.76
69420;BMP280;56612;52.030;113.524;2022-07-23T11:28:45;92161.59;;;25.76
69420;BMP280;56612;52.030;113.524;2022-07-23T11:31:56;92163.44;;;25.69
69420;BMP280;56612;52.030;113.524;2022-07-23T11:34:59;92165.13;;;25.64
69420;BMP280;56612;52.030;113.524;2022-07-23T11:41:08;92169.69;;;25.57
69420;BMP280;56612;52.030;113.524;2022-07-23T11:44:29;92168.50;;;25.54
69420;BMP280;56612;52.030;113.524;2022-07-23T11:47:32;92177.94;;;25.33
69420;BMP280;56612;52.030;113.524;2022-07-23T11:50:36;92177.41;;;25.20
69420;BMP280;56612;52.030;113.524;2022-07-23T11:53:45;92176.03;;;25.09
69420;BMP280;56612;52.030;113.524;2022-07-23T11:56:56;92183.69;;;24.96
69420;BMP280;56612;52.030;113.524;2022-07-23T12:00:07;92182.66;;;24.78
69420;BMP280;56612;52.030;113.524;2022-07-23T12:03:14;92192.88;;;24.67
69420;BMP280;56612;52.030;113.524;2022-07-23T12:06:18;92194.00;;;24.59
69420;BMP280;56612;52.030;113.524;2022-07-23T12:09:23;92183.13;;;24.46
69420;BMP280;56612;52.030;113.524;2022-07-23T12:12:26;92189.63;;;24.28
69420;BMP280;56612;52.030;113.524;2022-07-23T12:15:30;92185.50;;;24.17
69420;BMP280;56612;52.030;113.524;2022-07-23T12:18:36;92195.47;;;24.10
69420;BMP280;56612;52.030;113.524;2022-07-23T12:21:39;92198.09;;;23.99
69420;BMP280;56612;52.030;113.524;2022-07-23T12:25:04;92203.81;;;23.95
69420;BMP280;56612;52.030;113.524;2022-07-23T12:31:14;92211.56;;;23.78
69420;BMP280;56612;52.030;113.524;2022-07-23T12:34:19;92212.03;;;23.70
69420;BMP280;56612;52.030;113.524;2022-07-23T12:37:30;92208.63;;;23.69
69420;BMP280;56612;52.030;113.524;2022-07-23T12:40:46;92218.88;;;23.69
69420;BMP280;56612;52.030;113.524;2022-07-23T12:43:50;92210.25;;;23.64
69420;BMP280;56612;52.030;113.524;2022-07-23T12:46:53;92218.34;;;23.53
69420;BMP280;56612;52.030;113.524;2022-07-23T12:49:56;92219.09;;;23.52
69420;BMP280;56612;52.030;113.524;2022-07-23T12:53:05;92223.25;;;23.51
69420;BMP280;56612;52.030;113.524;2022-07-23T12:56:26;92221.38;;;23.47
69420;BMP280;56612;52.030;113.524;2022-07-23T12:59:31;92217.56;;;23.42
69420;BMP280;56612;52.030;113.524;2022-07-23T13:02:47;92217.34;;;23.46
69420;BMP280;56612;52.030;113.524;2022-07-23T13:05:50;92215.16;;;23.36
69420;BMP280;56612;52.030;113.524;2022-07-23T13:08:54;92203.03;;;23.33
69420;BMP280;56612;52.030;113.524;2022-07-23T13:11:59;92196.50;;;23.28
69420;BMP280;56612;52.030;113.524;2022-07-23T13:15:03;92195.16;;;23.27
69420;BMP280;56612;52.030;113.524;2022-07-23T13:18:07;92197.78;;;23.16
69420;BMP280;56612;52.030;113.524;2022-07-23T13:21:11;92201.38;;;23.13
69420;BMP280;56612;52.030;113.524;2022-07-23T13:24:14;92204.84;;;23.11
69420;BMP280;56612;52.030;113.524;2022-07-23T13:27:17;92209.00;;;23.10
69420;BMP280;56612;52.030;113.524;2022-07-23T13:30:21;92208.53;;;23.06
69420;BMP280;56612;52.030;113.524;2022-07-23T13:33:26;92210.84;;;23.01
69420;BMP280;56612;52.030;113.524;2022-07-23T13:36:30;92208.84;;;23.00
69420;BMP280;56612;52.030;113.524;2022-07-23T13:39:34;92219.97;;;22.96
69420;BMP280;56612;52.030;113.524;2022-07-23T13:42:40;92221.94;;;22.97
69420;BMP280;56612;52.030;113.524;2022-07-23T13:45:46;92221.25;;;22.97
69420;BMP280;56612;52.030;113.524;2022-07-23T13:48:49;92217.16;;;22.98
69420;BMP280;56612;52.030;113.524;2022-07-23T13:51:52;92221.47;;;22.93
69420;BMP280;56612;52.030;113.524;2022-07-23T13:54:57;92210.78;;;22.89
69420;BMP280;56612;52.030;113.524;2022-07-23T13:58:01;92224.53;;;22.87
69420;BMP280;56612;52.030;113.524;2022-07-23T14:01:06;92215.13;;;22.84
69420;BMP280;56612;52.030;113.524;2022-07-23T14:04:10;92224.06;;;22.82
69420;BMP280;56612;52.030;113.524;2022-07-23T14:07:14;92218.06;;;22.79
69420;BMP280;56612;52.030;113.524;2022-07-23T14:10:20;92214.81;;;22.77
69420;BMP280;56612;52.030;113.524;2022-07-23T14:13:24;92212.91;;;22.73
69420;BMP280;56612;52.030;113.524;2022-07-23T14:16:27;92205.38;;;22.74
69420;BMP280;56612;52.030;113.524;2022-07-23T14:19:31;92207.28;;;22.77
69420;BMP280;56612;52.030;113.524;2022-07-23T14:22:35;92215.44;;;22.77
69420;BMP280;56612;52.030;113.524;2022-07-23T14:25:40;92208.78;;;22.74
69420;BMP280;56612;52.030;113.524;2022-07-23T14:28:44;92213.03;;;22.71
69420;BMP280;56612;52.030;113.524;2022-07-23T14:31:50;92212.47;;;22.69
69420;BMP280;56612;52.030;113.524;2022-07-23T14:34:56;92211.34;;;22.64
69420;BMP280;56612;52.030;113.524;2022-07-23T14:38:00;92214.94;;;22.60
69420;BMP280;56612;52.030;113.524;2022-07-23T14:41:06;92211.09;;;22.55
69420;BMP280;56612;52.030;113.524;2022-07-23T14:44:10;92218.06;;;22.52
69420;BMP280;56612;52.030;113.524;2022-07-23T14:47:14;92214.03;;;22.51
69420;BMP280;56612;52.030;113.524;2022-07-23T14:50:22;92218.38;;;22.46
69420;BMP280;56612;52.030;113.524;2022-07-23T14:53:26;92216.84;;;22.49
69420;BMP280;56612;52.030;113.524;2022-07-23T14:56:29;92218.91;;;22.49
69420;BMP280;56612;52.030;113.524;2022-07-23T14:59:33;92219.56;;;22.49
69420;BMP280;56612;52.030;113.524;2022-07-23T15:02:39;92224.53;;;22.45
69420;BMP280;56612;52.030;113.524;2022-07-23T15:05:43;92217.78;;;22.44
69420;BMP280;56612;52.030;113.524;2022-07-23T15:08:47;92222.78;;;22.39
69420;BMP280;56612;52.030;113.524;2022-07-23T15:11:51;92224.38;;;22.34
69420;BMP280;56612;52.030;113.524;2022-07-23T15:14:54;92226.09;;;22.27
69420;BMP280;56612;52.030;113.524;2022-07-23T15:17:57;92224.78;;;22.26
69420;BMP280;56612;52.030;113.524;2022-07-23T15:21:01;92220.84;;;22.23
69420;BMP280;56612;52.030;113.524;2022-07-23T15:24:05;92211.84;;;22.12
69420;BMP280;56612;52.030;113.524;2022-07-23T15:27:09;92221.50;;;22.09
69420;BMP280;56612;52.030;113.524;2022-07-23T15:30:13;92235.13;;;21.94
69420;BMP280;56612;52.030;113.524;2022-07-23T15:33:18;92243.84;;;21.82
69420;BMP280;56612;52.030;113.524;2022-07-23T15:36:23;92243.38;;;21.77
69420;BMP280;56612;52.030;113.524;2022-07-23T15:39:26;92241.13;;;21.82
69420;BMP280;56612;52.030;113.524;2022-07-23T15:42:30;92238.13;;;21.88
69420;BMP280;56612;52.030;113.524;2022-07-23T15:45:35;92237.38;;;21.89
69420;BMP280;56612;52.030;113.524;2022-07-23T15:48:38;92227.06;;;21.92
69420;BMP280;56612;52.030;113.524;2022-07-23T15:51:41;92225.84;;;21.89
69420;BMP280;56612;52.030;113.524;2022-07-23T15:54:49;92235.50;;;21.86
69420;BMP280;56612;52.030;113.524;2022-07-23T15:57:54;92237.06;;;21.81
69420;BMP280;56612;52.030;113.524;2022-07-23T16:00:59;92239.53;;;21.72
69420;BMP280;56612;52.030;113.524;2022-07-23T16:04:07;92231.28;;;21.74
69420;BMP280;56612;52.030;113.524;2022-07-23T16:07:13;92232.31;;;21.81
69420;BMP280;56612;52.030;113.524;2022-07-23T16:10:16;92235.88;;;21.78
69420;BMP280;56612;52.030;113.524;2022-07-23T16:13:20;92221.91;;;21.71
69420;BMP280;56612;52.030;113.524;2022-07-23T16:16:23;92218.72;;;21.67
69420;BMP280;56612;52.030;113.524;2022-07-23T16:19:30;92216.47;;;21.56
69420;BMP280;56612;52.030;113.524;2022-07-23T16:22:34;92210.44;;;21.54
69420;BMP280;56612;52.030;113.524;2022-07-23T16:25:38;92202.56;;;21.48
69420;BMP280;56612;52.030;113.524;2022-07-23T16:28:41;92212.00;;;21.49
69420;BMP280;56612;52.030;113.524;2022-07-23T16:31:47;92203.84;;;21.49
69420;BMP280;56612;52.030;113.524;2022-07-23T16:34:51;92209.78;;;21.53
69420;BMP280;56612;52.030;113.524;2022-07-23T16:37:54;92210.75;;;21.63
69420;BMP280;56612;52.030;113.524;2022-07-23T16:40:58;92206.22;;;21.57
69420;BMP280;56612;52.030;113.524;2022-07-23T16:44:01;92215.53;;;21.62
69420;BMP280;56612;52.030;113.524;2022-07-23T16:47:07;92213.16;;;21.69
69420;BMP280;56612;52.030;113.524;2022-07-23T16:50:11;92219.38;;;21.67
69420;BMP280;56612;52.030;113.524;2022-07-23T16:53:14;92227.78;;;21.61
69420;BMP280;56612;52.030;113.524;2022-07-23T16:56:19;92235.13;;;21.65
69420;BMP280;56612;52.030;113.524;2022-07-23T16:59:22;92239.63;;;21.70
69420;BMP280;56612;52.030;113.524;2022-07-23T17:02:25;92243.19;;;21.67
69420;BMP280;56612;52.030;113.524;2022-07-23T17:05:28;92241.75;;;21.53
69420;BMP280;56612;52.030;113.524;2022-07-23T17:08:33;92261.06;;;21.47
69420;BMP280;56612;52.030;113.524;2022-07-23T17:11:36;92248.47;;;21.39
69420;BMP280;56612;52.030;113.524;2022-07-23T17:14:41;92237.78;;;21.35
69420;BMP280;56612;52.030;113.524;2022-07-23T17:17:44;92235.63;;;21.38
69420;BMP280;56612;52.030;113.524;2022-07-23T17:20:49;92229.44;;;21.39
69420;BMP280;56612;52.030;113.524;2022-07-23T17:23:52;92235.47;;;21.42
69420;BMP280;56612;52.030;113.524;2022-07-23T17:26:57;92229.44;;;21.39
69420;BMP280;56612;52.030;113.524;2022-07-23T17:30:07;92235.53;;;21.40
69420;BMP280;56612;52.030;113.524;2022-07-23T17:33:13;92224.09;;;21.37
69420;BMP280;56612;52.030;113.524;2022-07-23T17:36:16;92232.25;;;21.37
69420;BMP280;56612;52.030;113.524;2022-07-23T17:39:21;92232.91;;;21.38
69420;BMP280;56612;52.030;113.524;2022-07-23T17:42:25;92220.63;;;21.39
69420;BMP280;56612;52.030;113.524;2022-07-23T17:45:28;92229.44;;;21.39
69420;BMP280;56612;52.030;113.524;2022-07-23T17:48:32;92224.94;;;21.34
69420;BMP280;56612;52.030;113.524;2022-07-23T17:51:36;92229.13;;;21.31
69420;BMP280;56612;52.030;113.524;2022-07-23T17:54:39;92227.34;;;21.25
69420;BMP280;56612;52.030;113.524;2022-07-23T17:57:42;92232.22;;;21.23
69420;BMP280;56612;52.030;113.524;2022-07-23T18:00:46;92220.69;;;21.22
69420;BMP280;56612;52.030;113.524;2022-07-23T18:03:49;92220.13;;;21.20
69420;BMP280;56612;52.030;113.524;2022-07-23T18:06:53;92217.50;;;21.17
69420;BMP280;56612;52.030;113.524;2022-07-23T18:09:58;92210.84;;;21.14
69420;BMP280;56612;52.030;113.524;2022-07-23T18:13:03;92213.75;;;21.10
69420;BMP280;56612;52.030;113.524;2022-07-23T18:16:07;92212.69;;;21.03
69420;BMP280;56612;52.030;113.524;2022-07-23T18:19:10;92219.59;;;21.00
69420;BMP280;56612;52.030;113.524;2022-07-23T18:22:16;92214.78;;;20.86
69420;BMP280;56612;52.030;113.524;2022-07-23T18:25:20;92220.84;;;20.87
69420;BMP280;56612;52.030;113.524;2022-07-23T18:28:26;92225.88;;;20.80
69420;BMP280;56612;52.030;113.524;2022-07-23T18:31:29;92223.25;;;20.78
69420;BMP280;56612;52.030;113.524;2022-07-23T18:34:33;92226.63;;;20.78
69420;BMP280;56612;52.030;113.524;2022-07-23T18:37:37;92224.66;;;20.77
69420;BMP280;56612;52.030;113.524;2022-07-23T18:40:41;92221.38;;;20.74
69420;BMP280;56612;52.030;113.524;2022-07-23T18:43:47;92222.19;;;20.71
69420;BMP280;56612;52.030;113.524;2022-07-23T18:46:51;92225.66;;;20.69
69420;BMP280;56612;52.030;113.524;2022-07-23T18:49:55;92219.56;;;20.69
69420;BMP280;56612;52.030;113.524;2022-07-23T18:52:59;92211.66;;;20.63
69420;BMP280;56612;52.030;113.524;2022-07-23T18:56:02;92219.72;;;20.65
69420;BMP280;56612;52.030;113.524;2022-07-23T18:59:06;92227.03;;;20.68
69420;BMP280;56612;52.030;113.524;2022-07-23T19:02:22;92229.34;;;20.78
69420;BMP280;56612;52.030;113.524;2022-07-23T19:05:26;92235.59;;;20.75
69420;BMP280;56612;52.030;113.524;2022-07-23T19:08:30;92239.78;;;20.72
69420;BMP280;56612;52.030;113.524;2022-07-23T19:11:36;92251.41;;;20.70
69420;BMP280;56612;52.030;113.524;2022-07-23T19:14:39;92245.56;;;20.64
69420;BMP280;56612;52.030;113.524;2022-07-23T19:17:43;92248.53;;;20.58
69420;BMP280;56612;52.030;113.524;2022-07-23T19:20:47;92252.69;;;20.55
69420;BMP280;56612;52.030;113.524;2022-07-23T19:23:51;92249.66;;;20.29
69420;BMP280;56612;52.030;113.524;2022-07-23T19:26:56;92243.50;;;20.31
69420;BMP280;56612;52.030;113.524;2022-07-23T19:30:07;92246.09;;;20.33
69420;BMP280;56612;52.030;113.524;2022-07-23T19:33:10;92254.91;;;20.33
69420;BMP280;56612;52.030;113.524;2022-07-23T19:36:14;92251.72;;;20.29
69420;BMP280;56612;52.030;113.524;2022-07-23T19:39:18;92258.44;;;20.30
69420;BMP280;56612;52.030;113.524;2022-07-23T19:42:21;92249.00;;;20.29
69420;BMP280;56612;52.030;113.524;2022-07-23T19:45:25;92252.47;;;20.27
69420;BMP280;56612;52.030;113.524;2022-07-23T19:48:28;92254.56;;;20.25
69420;BMP280;56612;52.030;113.524;2022-07-23T19:51:32;92264.13;;;20.24
69420;BMP280;56612;52.030;113.524;2022-07-23T19:54:36;92255.38;;;20.21
69420;BMP280;56612;52.030;113.524;2022-07-23T19:57:39;92258.03;;;20.23
69420;BMP280;56612;52.030;113.524;2022-07-23T20:00:43;92266.34;;;20.19
69420;BMP280;56612;52.030;113.524;2022-07-23T20:03:47;92263.53;;;20.21
69420;BMP280;56612;52.030;113.524;2022-07-23T20:06:50;92259.91;;;20.10
69420;BMP280;56612;52.030;113.524;2022-07-23T20:09:54;92268.03;;;20.10
69420;BMP280;56612;52.030;113.524;2022-07-23T20:12:57;92259.16;;;20.12
69420;BMP280;56612;52.030;113.524;2022-07-23T20:16:01;92258.59;;;20.09
69420;BMP280;56612;52.030;113.524;2022-07-23T20:19:05;92255.22;;;20.09
69420;BMP280;56612;52.030;113.524;2022-07-23T20:22:09;92259.31;;;20.08
69420;BMP280;56612;52.030;113.524;2022-07-23T20:25:13;92255.44;;;20.03
69420;BMP280;56612;52.030;113.524;2022-07-23T20:28:16;92258.72;;;20.05
69420;BMP280;56612;52.030;113.524;2022-07-23T20:31:21;92254.13;;;20.02
69420;BMP280;56612;52.030;113.524;2022-07-23T20:34:24;92250.03;;;20.03
69420;BMP280;56612;52.030;113.524;2022-07-23T20:37:28;92249.44;;;20.00
69420;BMP280;56612;52.030;113.524;2022-07-23T20:40:32;92250.09;;;20.01
69420;BMP280;56612;52.030;113.524;2022-07-23T20:43:35;92253.53;;;19.99
69420;BMP280;56612;52.030;113.524;2022-07-23T20:46:39;92251.72;;;19.93
69420;BMP280;56612;52.030;113.524;2022-07-23T20:49:43;92249.25;;;19.87